• Join FlightAware (Why Join?)
  • Login
  • US Flag 
02:36PM EDT


 

Airport Tracker/Info


-or-


 

Live Flight TrackerFlight Track Log ✈ N27XP ✈ 25-Apr-2014 ✈ KSOP - KTYS

Flight Track Log - Related Links

Times and Time Zones

All times are in EDT time to prevent confusion due to time zone crossing. See the N27XP flight status page for this flight to view local times or setup timezone preferences in your user account.

Time Position Orientation Groundspeed Altitude Reporting Facility
EDT Latitude Longitude Course Direction KTS MPH feet Rate Location/Type
12:16PM 35.2211 -79.4836 280° West 219 252 5,400  Level Washington Center
12:17PM 35.2319 -79.5594 280° West 233 268 7,700 2,400 Climbing Washington Center
12:18PM 35.2442 -79.6511 279° West 251 289 10,400 2,220 Climbing Washington Center
12:19PM 35.2581 -79.7464 280° West 285 328 12,400 1,980 Climbing Washington Center
12:20PM 35.2728 -79.8544 280° West 297 342 14,600 2,040 Climbing Washington Center
12:21PM 35.2558 -79.9539 258° West 299 344 16,600 1,740 Climbing Washington Center
12:22PM 35.2108 -80.0403 237° Southwest 302 348 18,400 1,560 Climbing Washington Center
12:23PM 35.1742 -80.1489 248° West 315 362 19,900 1,560 Climbing Washington Center
12:24PM 35.1858 -80.2586 277° West 323 372 21,700 960 Climbing Washington Center
12:25PM 35.2036 -80.3728 281° West 340 391 22,000 120 Climbing Washington Center
12:26PM 35.2244 -80.4972 282° West 369 425 22,000  Level Washington Center
12:27PM 35.2461 -80.6228 282° West 375 432 22,000  Level Washington Center
12:28PM 35.2664 -80.7458 281° West 374 430 22,000  Level Washington Center
12:29PM 35.2936 -80.8917 283° West 367 422 22,000  Level Washington Center
12:30PM 35.3139 -81.0203 281° West 371 427 22,000  Level Atlanta Center
12:31PM 35.3356 -81.1417 282° West 371 427 22,000  Level Atlanta Center
12:32PM 35.3572 -81.2631 282° West 371 427 22,000  Level Atlanta Center
12:33PM 35.3767 -81.3847 281° West 371 427 22,000  Level Atlanta Center
12:34PM 35.4000 -81.5036 284° West 371 427 22,000  Level Atlanta Center
12:35PM 35.4214 -81.6278 282° West 371 427 22,000  Level Atlanta Center
12:36PM 35.4422 -81.7444 282° West 371 427 22,000  Level Atlanta Center
12:37PM 35.4633 -81.8664 282° West 371 427 22,000  Level Atlanta Center
12:38PM 35.4842 -81.9856 282° West 371 427 22,000  Level Atlanta Center
12:39PM 35.5047 -82.1025 282° West 371 427 22,000  Level Atlanta Center
12:40PM 35.5256 -82.2347 281° West 371 427 22,000 -300 Level Atlanta Center
12:41PM 35.5481 -82.3517 283° West 365 420 21,500 -720 Descending Atlanta Center
12:42PM 35.5683 -82.4711 282° West 365 420 20,600 -780 Descending Atlanta Center
12:43PM 35.5844 -82.5883 280° West 360 414 20,000 -300 Descending Atlanta Center
12:44PM 35.6025 -82.7031 281° West 351 404 20,000  Level Atlanta Center
12:45PM 35.6225 -82.8200 282° West 351 404 20,000  Level Atlanta Center
12:46PM 35.6403 -82.9347 281° West 351 404 20,000 -600 Level Atlanta Center
12:47PM 35.6600 -83.0572 281° West 351 404 18,900 -1,680 Descending Atlanta Center
12:48PM 35.6797 -83.1772 281° West 351 404 16,700 -2,100 Descending Atlanta Center
12:49PM 35.6992 -83.2894 282° West 351 404 14,700 -2,100 Descending Atlanta Center
12:50PM 35.7186 -83.3992 282° West 345 397 12,600 -1,860 Descending Atlanta Center
12:51PM 35.7339 -83.5042 280° West 332 382 11,000 -900 Descending Atlanta Center
12:52PM 35.7508 -83.5808 285° West 285 328 10,900 -1,200 Descending Atlanta Center
12:53PM 35.8031 -83.6367 319° Northwest 240 276 8,600 -2,400 Descending Atlanta Center
12:54PM 35.8597 -83.6903 323° Northwest 245 282 6,200 -2,160 Descending Atlanta Center
12:55PM 35.8994 -83.7492 310° West 240 276 4,300 -1,680 Descending Atlanta Center
12:56PM 35.8933 -83.8233 264° West 213 245 2,900 -900 Descending Atlanta Center
12:57PM 35.8747 -83.8900 251° West 203 234 2,600 -600 Descending Atlanta Center
12:58PM 35.8581 -83.9364 246° West 175 201 1,700 -660 Descending Atlanta Center
12:59PM 35.8331 -83.9669 225° Southwest 150 173 1,300 -420 Descending Atlanta Center
01:01PM 35.8000 -83.9833 270° West  Level FlightAware Approximate